Time;durP1;ratioP1;P1;durP2;ratioP2;P2;SDS_P1;SDS_P2;PMS_P1;PMS_P2;Temp;Humidity;BMP_temperature;BMP_pressure;BME280_temperature;BME280_humidity;BME280_pressure;Samples;Min_cycle;Max_cycle;Signal;HPM_P1;HPM_P2
2021/08/03 00:04:14;;;;;;;1999.90;999.90;;;;;;;16.07;69.06;100922.25;15746880;28;20119;-63
2021/08/03 00:11:49;;;;;;;1999.90;999.90;;;;;;;15.98;69.16;100913.19;15763992;22;20101;-62
2021/08/03 00:19:25;;;;;;;1999.90;999.90;;;;;;;15.93;69.37;100910.63;15719977;28;20041;-62
2021/08/03 00:26:57;;;;;;;1999.90;999.90;;;;;;;15.81;69.79;100913.56;15754198;28;20044;-63
2021/08/03 00:34:31;;;;;;;1999.90;999.90;;;;;;;15.66;70.38;100914.38;15719979;28;20041;-63
2021/08/03 00:42:04;;;;;;;;;;;;;;;15.66;70.27;100906.78;15737785;28;20043;-63
2021/08/03 00:49:42;;;;;;;1999.90;999.90;;;;;;;15.53;70.45;100906.00;15718838;28;19952;-63
2021/08/03 00:57:28;;;;;;;1999.90;999.90;;;;;;;15.27;71.17;100914.13;15736671;28;20119;-62
2021/08/03 01:05:11;;;;;;;1999.90;999.90;;;;;;;15.31;70.83;100900.97;15702554;28;20346;-62
2021/08/03 01:12:52;;;;;;;1999.90;999.90;;;;;;;15.24;70.86;100915.69;15703513;28;20045;-62
2021/08/03 01:20:31;;;;;;;1999.90;999.90;;;;;;;15.24;70.82;100907.25;15719299;28;20045;-63
2021/08/03 01:28:18;;;;;;;1999.90;999.90;;;;;;;15.19;71.47;100904.69;15718113;28;20047;-62
2021/08/03 01:35:53;;;;;;;1999.90;999.90;;;;;;;15.14;72.04;100923.81;15734277;28;20044;-62
2021/08/03 01:43:28;;;;;;;1999.90;999.90;;;;;;;14.76;72.02;100930.75;15709652;28;20048;-62
2021/08/03 01:51:02;;;;;;;1999.90;999.90;;;;;;;14.96;71.50;100924.13;15711808;28;20041;-63
2021/08/03 01:58:41;;;;;;;1999.90;999.90;;;;;;;14.94;71.76;100925.66;15734240;28;20127;-63
2021/08/03 02:06:29;;;;;;;1999.90;999.90;;;;;;;14.73;71.74;100926.66;15716493;28;20086;-63
2021/08/03 02:14:04;;;;;;;1999.90;999.90;;;;;;;14.78;70.99;100930.38;15716855;28;20044;-63
2021/08/03 02:21:47;;;;;;;1999.90;999.90;;;;;;;14.52;71.27;100933.63;15716266;28;20132;-63
2021/08/03 02:29:25;;;;;;;1999.90;999.90;;;;;;;14.65;71.15;100957.69;15715414;28;20048;-63
2021/08/03 02:37:02;;;;;;;1999.90;999.90;;;;;;;14.81;71.12;100946.56;15714643;28;20112;-63
2021/08/03 02:44:41;;;;;;;1999.90;999.90;;;;;;;14.40;72.39;100949.31;15720873;28;20425;-61
2021/08/03 02:52:15;;;;;;;1999.90;999.90;;;;;;;14.72;71.94;100955.94;15743504;28;20049;-63
2021/08/03 02:59:57;;;;;;;1999.90;999.90;;;;;;;14.87;72.39;100959.16;15726042;28;20076;-64
2021/08/03 03:07:34;;;;;;;1999.90;999.90;;;;;;;15.13;71.44;100953.09;15727922;28;20079;-64
2021/08/03 03:15:12;;;;;;;1999.90;999.90;;;;;;;15.34;71.16;100956.50;15699916;28;20062;-63
2021/08/03 03:22:47;;;;;;;1999.90;999.90;;;;;;;15.35;71.80;100951.69;15758035;28;20481;-64
2021/08/03 03:30:23;;;;;;;1999.90;999.90;;;;;;;15.28;71.12;100953.13;15757470;28;20057;-63
2021/08/03 03:37:57;;;;;;;1999.90;999.90;;;;;;;15.18;70.65;100962.06;15723231;28;20072;-66
2021/08/03 03:45:32;;;;;;;1999.90;999.90;;;;;;;14.98;70.56;100966.72;15707633;28;20479;-62
2021/08/03 03:53:09;;;;;;;1999.90;999.90;;;;;;;15.57;70.04;100960.34;15721595;28;20562;-62
2021/08/03 04:00:44;;;;;;;1999.90;999.90;;;;;;;15.65;70.59;100974.66;15741052;28;20072;-64
2021/08/03 04:08:17;;;;;;;1999.90;999.90;;;;;;;15.80;69.56;100980.28;15722619;28;20058;-63
2021/08/03 04:15:51;;;;;;;1999.90;999.90;;;;;;;15.85;70.57;100984.81;15738454;28;20070;-63
2021/08/03 04:23:24;;;;;;;1999.90;999.90;;;;;;;15.92;71.16;100996.25;15721261;28;20044;-63
2021/08/03 04:30:59;;;;;;;1999.90;999.90;;;;;;;16.11;70.44;100995.53;15738080;28;20076;-64
2021/08/03 04:38:32;;;;;;;1999.90;999.90;;;;;;;16.26;69.72;100991.09;15719697;28;20116;-64
2021/08/03 04:46:06;;;;;;;1999.90;999.90;;;;;;;16.30;69.12;101001.25;15737907;28;20127;-64
2021/08/03 04:53:39;;;;;;;1999.90;999.90;;;;;;;16.42;70.16;101001.13;15719251;28;20071;-63
2021/08/03 05:01:12;;;;;;;1999.90;999.90;;;;;;;16.52;69.16;101011.00;15701805;28;20123;-63
2021/08/03 05:08:44;;;;;;;1999.90;999.90;;;;;;;16.51;68.55;101014.19;15700445;28;20041;-65
2021/08/03 05:16:18;;;;;;;1999.90;999.90;;;;;;;16.37;69.27;100998.59;15726257;28;20444;-65
2021/08/03 05:23:50;;;;;;;1999.90;999.90;;;;;;;16.82;68.34;100999.25;15700823;28;20541;-62
2021/08/03 05:31:23;;;;;;;1999.90;999.90;;;;;;;17.11;68.60;101003.50;15677541;28;20052;-63
2021/08/03 05:38:56;;;;;;;1999.90;999.90;;;;;;;17.20;68.53;101007.75;15698954;28;20120;-64
2021/08/03 05:46:31;;;;;;;1999.90;999.90;;;;;;;17.03;69.32;101013.81;15677262;28;20060;-62
2021/08/03 05:54:03;;;;;;;1999.90;999.90;;;;;;;17.33;68.42;101019.69;15729708;28;20040;-62
2021/08/03 06:01:37;;;;;;;1999.90;999.90;;;;;;;17.33;67.64;101027.31;15715835;28;20458;-65
2021/08/03 06:09:10;;;;;;;;;;;;;;;17.36;67.32;101030.22;15717125;28;20083;-65
2021/08/03 06:16:45;;;;;;;1999.90;999.90;;;;;;;17.59;67.66;101028.25;15736531;28;19920;-65
2021/08/03 06:24:18;;;;;;;1999.90;999.90;;;;;;;17.93;68.05;101024.91;15712199;28;20048;-65
2021/08/03 06:31:54;;;;;;;1999.90;999.90;;;;;;;17.97;67.20;101025.78;15682616;28;20123;-64
2021/08/03 06:39:26;;;;;;;1999.90;999.90;;;;;;;17.99;65.95;101021.38;15682434;28;20041;-65
2021/08/03 06:47:00;;;;;;;1999.90;999.90;;;;;;;17.96;65.30;101027.78;15739529;28;20102;-65
2021/08/03 06:54:33;;;;;;;1999.90;999.90;;;;;;;18.49;65.46;101030.69;15744983;28;20048;-64
2021/08/03 07:02:08;;;;;;;1999.90;999.90;;;;;;;18.91;63.79;101021.25;15725736;28;20500;-65
2021/08/03 07:09:42;;;;;;;1999.90;999.90;;;;;;;18.93;64.12;101035.81;15745711;28;20128;-64
2021/08/03 07:17:17;;;;;;;1999.90;999.90;;;;;;;19.60;63.42;101042.41;15750559;28;20596;-65
2021/08/03 07:24:54;;;;;;;1999.90;999.90;;;;;;;20.50;60.53;101048.94;15736770;28;20037;-65
2021/08/03 07:32:27;;;;;;;1999.90;999.90;;;;;;;20.64;59.05;101041.38;15742316;28;20050;-65
2021/08/03 07:40:00;;;;;;;1999.90;999.90;;;;;;;20.40;59.57;101041.94;15724353;28;20051;-64
2021/08/03 07:47:34;;;;;;;1999.90;999.90;;;;;;;20.52;60.31;101040.84;15724181;28;20104;-65
2021/08/03 07:55:07;;;;;;;1999.90;999.90;;;;;;;22.09;56.68;101043.25;15724409;28;20119;-65
2021/08/03 08:02:40;;;;;;;1999.90;999.90;;;;;;;22.94;53.00;101038.78;15741701;28;20102;-66
2021/08/03 08:10:13;;;;;;;1999.90;999.90;;;;;;;23.12;52.75;101036.66;15740104;28;20049;-66
2021/08/03 08:17:47;;;;;;;1999.90;999.90;;;;;;;23.32;51.41;101032.13;15722343;28;20063;-66
2021/08/03 08:25:20;;;;;;;1999.90;999.90;;;;;;;23.98;51.14;101030.59;15705390;28;20127;-65
2021/08/03 08:32:54;;;;;;;1999.90;999.90;;;;;;;23.71;52.36;101028.31;15739935;28;20099;-66
2021/08/03 08:40:27;;;;;;;1999.90;999.90;;;;;;;24.01;49.59;101024.88;15738208;28;20195;-66
2021/08/03 08:48:01;;;;;;;1999.90;999.90;;;;;;;23.59;51.71;101023.09;15721076;28;20048;-66
2021/08/03 08:55:33;;;;;;;1999.90;999.90;;;;;;;22.71;53.05;101025.75;15738381;28;20428;-66
2021/08/03 09:03:07;;;;;;;1999.90;999.90;;;;;;;23.13;53.10;101041.13;15737255;28;20098;-66
2021/08/03 09:10:41;;;;;;;1999.90;999.90;;;;;;;23.78;50.97;101013.22;15702640;28;20148;-65
2021/08/03 09:18:24;;;;;;;1999.90;999.90;;;;;;;24.57;47.71;101016.28;15717944;28;20055;-65
2021/08/03 09:25:58;;;;;;;1999.90;999.90;;;;;;;25.30;47.03;101008.16;15736725;28;20040;-65
2021/08/03 09:33:33;;;;;;;1999.90;999.90;;;;;;;25.41;48.35;101018.63;15735003;28;20048;-65
2021/08/03 09:41:09;;;;;;;1999.90;999.90;;;;;;;26.61;45.40;101013.16;15735030;28;20128;-65
2021/08/03 09:58:05;;;;;;;1999.90;999.90;;;;;;;26.92;44.05;101024.44;15733433;28;20048;-66
2021/08/03 10:05:38;;;;;;;1999.90;999.90;;;;;;;27.60;42.03;101018.94;15716482;28;20110;-65
2021/08/03 10:13:12;;;;;;;1999.90;999.90;;;;;;;27.18;43.78;101017.00;15733597;28;20048;-66
2021/08/03 10:20:47;;;;;;;1999.90;999.90;;;;;;;26.46;41.95;101017.50;15715818;28;20045;-66
2021/08/03 10:28:22;;;;;;;1999.90;999.90;;;;;;;26.54;42.87;101006.75;15715355;28;20044;-66
2021/08/03 10:35:54;;;;;;;1999.90;999.90;;;;;;;26.80;41.56;101007.91;15733218;28;20048;-65
2021/08/03 10:43:39;;;;;;;1999.90;999.90;;;;;;;27.42;39.48;101003.41;15733217;28;20045;-66
2021/08/03 10:51:36;;;;;;;1999.90;999.90;;;;;;;29.03;39.56;100987.53;15732896;28;20059;-65
2021/08/03 10:59:37;;;;;;;1999.90;999.90;;;;;;;28.36;38.91;100983.63;15714577;28;20048;-66
2021/08/03 11:07:29;;;;;;;1999.90;999.90;;;;;;;27.74;39.19;100976.91;15740775;28;20504;-65
2021/08/03 11:15:35;;;;;;;1999.90;999.90;;;;;;;27.20;39.17;100977.25;15743718;28;20466;-65
2021/08/03 11:23:11;;;;;;;1999.90;999.90;;;;;;;27.58;38.37;100967.00;15725502;28;20036;-66
2021/08/03 11:30:44;;;;;;;1999.90;999.90;;;;;;;29.51;37.27;100959.84;15708093;28;20090;-65
2021/08/03 11:38:22;;;;;;;1999.90;999.90;;;;;;;29.55;35.64;100953.97;15742034;28;20041;-62
2021/08/03 11:45:54;;;;;;;1999.90;999.90;;;;;;;28.98;33.43;100956.50;15742480;28;20358;-64
2021/08/03 11:53:29;;;;;;;1999.90;999.90;;;;;;;27.19;37.87;100944.13;15741420;28;20493;-64
2021/08/03 12:01:03;;;;;;;1999.90;999.90;;;;;;;26.91;39.22;100925.47;15706105;28;20465;-65
2021/08/03 12:08:39;;;;;;;1999.90;999.90;;;;;;;29.40;34.76;100913.38;15755301;22;20106;-74
2021/08/03 12:16:12;;;;;;;1999.90;999.90;;;;;;;32.30;32.07;100915.81;15742720;28;20413;-73
2021/08/03 12:23:45;;;;;;;1999.90;999.90;;;;;;;30.88;33.90;100913.69;15701162;23;20452;-63
2021/08/03 12:31:30;;;;;;;1999.90;999.90;;;;;;;27.61;37.82;100885.84;15603048;28;20077;-64
2021/08/03 12:39:05;;;;;;;1999.90;999.90;;;;;;;27.97;40.40;100882.13;15585687;28;20053;-64
2021/08/03 12:46:39;;;;;;;1999.90;999.90;;;;;;;27.83;38.43;100877.56;15654741;28;20041;-64
2021/08/03 12:54:15;;;;;;;1999.90;999.90;;;;;;;31.11;34.98;100874.94;15662800;28;20041;-64
2021/08/03 13:01:47;;;;;;;1999.90;999.90;;;;;;;28.51;35.72;100864.28;15662818;28;20451;-64
2021/08/03 13:09:20;;;;;;;;;;;;;;;27.49;39.95;100860.75;15662728;28;20124;-64
2021/08/03 13:16:56;;;;;;;1999.90;999.90;;;;;;;26.55;41.39;100850.97;15661776;28;19942;-64
2021/08/03 13:24:30;;;;;;;1999.90;999.90;;;;;;;26.48;43.42;100854.81;15644879;28;20048;-63
2021/08/03 13:32:02;;;;;;;1999.90;999.90;;;;;;;26.08;43.51;100849.00;15678153;28;20047;-63
2021/08/03 13:39:35;;;;;;;1999.90;999.90;;;;;;;26.08;43.61;100846.13;15643715;28;20425;-64
2021/08/03 13:47:08;;;;;;;1999.90;999.90;;;;;;;26.16;41.14;100841.09;15620853;28;20048;-64
2021/08/03 13:54:41;;;;;;;1999.90;999.90;;;;;;;25.71;44.17;100835.75;15615846;28;20107;-63
2021/08/03 14:02:14;;;;;;;1999.90;999.90;;;;;;;26.11;44.95;100824.44;15615926;28;20076;-63
2021/08/03 14:09:47;;;;;;;1999.90;999.90;;;;;;;25.68;41.88;100833.75;15597513;28;20399;-64
2021/08/03 14:17:20;;;;;;;1999.90;999.90;;;;;;;25.30;42.84;100825.38;15597707;28;20038;-64
2021/08/03 14:24:53;;;;;;;1999.90;999.90;;;;;;;25.43;42.00;100825.59;15596917;28;20045;-64
2021/08/03 14:32:25;;;;;;;1999.90;999.90;;;;;;;25.32;41.23;100827.78;15600617;28;20048;-64
2021/08/03 14:39:59;;;;;;;1999.90;999.90;;;;;;;26.01;44.51;100829.09;15621216;28;20498;-64
2021/08/03 14:47:32;;;;;;;1999.90;999.90;;;;;;;25.58;41.71;100818.41;15646296;28;20041;-65
2021/08/03 14:55:07;;;;;;;1999.90;999.90;;;;;;;25.52;41.57;100810.75;15630272;28;20041;-64
2021/08/03 15:02:39;;;;;;;1999.90;999.90;;;;;;;25.25;41.20;100817.31;15607382;28;20132;-64
2021/08/03 15:10:13;;;;;;;1999.90;999.90;;;;;;;25.43;43.32;100813.34;15624948;28;20041;-64
2021/08/03 15:17:45;;;;;;;1999.90;999.90;;;;;;;25.49;43.82;100811.63;15624369;28;20053;-64
2021/08/03 15:25:20;;;;;;;1999.90;999.90;;;;;;;25.32;43.94;100807.81;15589386;28;20152;-63
2021/08/03 15:32:53;;;;;;;1999.90;999.90;;;;;;;25.16;44.31;100799.09;15604664;28;20054;-62
2021/08/03 15:40:26;;;;;;;1999.90;999.90;;;;;;;25.10;48.50;100792.25;15623459;28;20533;-63
2021/08/03 15:47:59;;;;;;;1999.90;999.90;;;;;;;24.98;45.30;100802.19;15666505;28;20048;-62
2021/08/03 15:55:32;;;;;;;1999.90;999.90;;;;;;;24.82;45.79;100788.56;15637332;28;20043;-63
2021/08/03 16:03:05;;;;;;;1999.90;999.90;;;;;;;24.84;44.97;100794.63;15600851;28;20654;-64
2021/08/03 16:10:38;;;;;;;;;;;;;;;24.87;46.56;100784.41;15588753;28;20464;-62
2021/08/03 16:18:12;;;;;;;1999.90;999.90;;;;;;;24.80;46.09;100778.78;15620589;28;20020;-62
2021/08/03 16:25:48;;;;;;;1999.90;999.90;;;;;;;24.95;47.74;100771.66;15620744;28;20057;-63
2021/08/03 16:33:26;;;;;;;1999.90;999.90;;;;;;;24.93;46.65;100779.84;15619684;28;20565;-63
2021/08/03 16:41:01;;;;;;;1999.90;999.90;;;;;;;25.07;45.62;100764.56;15591449;28;20032;-62
2021/08/03 16:48:33;;;;;;;1999.90;999.90;;;;;;;24.96;45.92;100756.13;15627096;28;20502;-63
2021/08/03 16:56:07;;;;;;;;;;;;;;;24.72;45.53;100761.78;15618617;28;20077;-63
2021/08/03 17:03:47;;;;;;;1999.90;999.90;;;;;;;24.64;46.17;100770.88;15599457;28;19920;-64
2021/08/03 17:11:28;;;;;;;1999.90;999.90;;;;;;;24.71;49.51;100762.22;15600554;28;20075;-65
2021/08/03 17:19:09;;;;;;;1999.90;999.90;;;;;;;24.61;47.77;100764.00;15618302;28;20045;-65
2021/08/03 17:26:48;;;;;;;1999.90;999.90;;;;;;;24.40;50.05;100767.13;15618147;28;20411;-63
2021/08/03 17:34:22;;;;;;;1999.90;999.90;;;;;;;24.17;50.36;100764.91;15599970;28;20049;-62
2021/08/03 17:41:57;;;;;;;1999.90;999.90;;;;;;;24.02;53.43;100767.13;15619091;28;20107;-62
2021/08/03 17:49:29;;;;;;;1999.90;999.90;;;;;;;23.80;53.35;100765.75;15586655;28;20045;-63
2021/08/03 17:57:03;;;;;;;1999.90;999.90;;;;;;;23.52;53.02;100772.47;15608050;28;20041;-63
2021/08/03 18:04:36;;;;;;;1999.90;999.90;;;;;;;23.29;53.86;100790.97;15585282;28;20046;-63
2021/08/03 18:12:12;;;;;;;1999.90;999.90;;;;;;;23.26;55.04;100777.59;15608184;28;20050;-63
2021/08/03 18:19:48;;;;;;;1999.90;999.90;;;;;;;23.12;56.93;100788.25;15617976;28;20084;-63
2021/08/03 18:27:26;;;;;;;1999.90;999.90;;;;;;;22.86;55.65;100781.91;15582581;28;20050;-63
2021/08/03 18:35:04;;;;;;;1999.90;999.90;;;;;;;22.88;55.85;100776.63;15600348;28;20045;-63
2021/08/03 18:42:43;;;;;;;1999.90;999.90;;;;;;;22.77;56.20;100773.00;15615524;28;20045;-63
2021/08/03 18:50:16;;;;;;;1999.90;999.90;;;;;;;22.72;57.47;100784.81;15617202;28;20041;-63
2021/08/03 18:58:00;;;;;;;1999.90;999.90;;;;;;;22.67;58.82;100793.78;15622605;28;20045;-63
2021/08/03 19:05:47;;;;;;;1999.90;999.90;;;;;;;22.51;57.96;100787.75;15611226;28;20064;-63
2021/08/03 19:13:22;;;;;;;1999.90;999.90;;;;;;;22.41;59.54;100795.94;15611220;28;20045;-63
2021/08/03 19:20:56;;;;;;;1999.90;999.90;;;;;;;22.40;60.20;100804.84;15610474;28;20103;-63
2021/08/03 19:28:31;;;;;;;1999.90;999.90;;;;;;;22.29;60.05;100804.91;15591685;28;20568;-63
2021/08/03 19:36:04;;;;;;;1999.90;999.90;;;;;;;22.18;59.42;100801.28;15622832;28;20041;-63
2021/08/03 19:43:37;;;;;;;1999.90;999.90;;;;;;;22.09;59.74;100806.56;15650430;28;20079;-63
2021/08/03 19:51:14;;;;;;;1999.90;999.90;;;;;;;22.17;59.62;100809.00;15602060;28;20037;-64
2021/08/03 19:58:49;;;;;;;1999.90;999.90;;;;;;;22.18;59.91;100809.81;15627993;28;20056;-63
2021/08/03 20:06:22;;;;;;;1999.90;999.90;;;;;;;22.10;59.07;100816.75;15616758;28;20052;-64
2021/08/03 20:13:57;;;;;;;1999.90;999.90;;;;;;;22.16;59.25;100826.47;15600984;22;20041;-59
2021/08/03 20:21:29;;;;;;;1999.90;999.90;;;;;;;22.17;62.06;100825.22;15629193;28;20049;-59
2021/08/03 20:29:04;;;;;;;1999.90;999.90;;;;;;;22.07;60.80;100826.88;15648635;28;20132;-62
2021/08/03 20:36:37;;;;;;;1999.90;999.90;;;;;;;21.40;57.33;100833.41;15658649;28;20382;-59
2021/08/03 20:44:11;;;;;;;1999.90;999.90;;;;;;;21.01;57.31;100844.63;15649101;28;20160;-60
2021/08/03 20:51:43;;;;;;;1999.90;999.90;;;;;;;20.97;57.72;100841.81;15667888;28;20149;-59
2021/08/03 20:59:17;;;;;;;1999.90;999.90;;;;;;;21.07;56.99;100851.56;15658951;28;20152;-59
2021/08/03 21:06:50;;;;;;;1999.90;999.90;;;;;;;21.10;57.22;100855.59;15674806;28;20102;-56
2021/08/03 21:14:24;;;;;;;1999.90;999.90;;;;;;;21.03;57.51;100860.03;15674718;28;20099;-59
2021/08/03 21:22:15;;;;;;;1999.90;999.90;;;;;;;21.03;57.46;100862.88;15618675;28;20397;-58
2021/08/03 21:30:09;;;;;;;1999.90;999.90;;;;;;;20.85;58.34;100866.91;15673924;28;20060;-57
2021/08/03 21:38:01;;;;;;;1999.90;999.90;;;;;;;20.66;58.86;100860.34;15673781;28;20087;-59
2021/08/03 21:45:53;;;;;;;1999.90;999.90;;;;;;;20.90;58.91;100872.16;15669963;28;20406;-58
2021/08/03 21:53:44;;;;;;;1999.90;999.90;;;;;;;20.88;58.67;100880.25;15671935;28;20047;-58
2021/08/03 22:01:18;;;;;;;1999.90;999.90;;;;;;;20.62;59.73;100876.50;15672912;28;20098;-59
2021/08/03 22:08:50;;;;;;;1999.90;999.90;;;;;;;20.68;59.85;100886.25;15673244;28;20045;-59
2021/08/03 22:16:23;;;;;;;1999.90;999.90;;;;;;;20.77;60.59;100883.06;15670500;28;20390;-59
2021/08/03 22:23:56;;;;;;;1999.90;999.90;;;;;;;20.79;61.21;100879.81;15655467;28;20099;-59
2021/08/03 22:31:29;;;;;;;1999.90;999.90;;;;;;;20.78;61.73;100873.34;15672634;28;20078;-58
2021/08/03 22:39:01;;;;;;;1999.90;999.90;;;;;;;20.65;62.37;100877.75;15670873;28;20041;-59
2021/08/03 22:46:35;;;;;;;1999.90;999.90;;;;;;;20.64;63.68;100874.09;15653579;28;20118;-57
2021/08/03 22:54:07;;;;;;;1999.90;999.90;;;;;;;20.45;64.29;100874.41;15670362;28;20136;-57
2021/08/03 23:01:41;;;;;;;1999.90;999.90;;;;;;;20.54;63.74;100866.34;15672297;28;20468;-59
2021/08/03 23:09:13;;;;;;;1999.90;999.90;;;;;;;20.45;65.25;100861.03;15659574;28;20052;-59
2021/08/03 23:16:46;;;;;;;1999.90;999.90;;;;;;;20.31;65.62;100865.78;15674269;28;20084;-56
2021/08/03 23:24:19;;;;;;;1999.90;999.90;;;;;;;20.27;65.95;100856.44;15671259;28;20049;-58
2021/08/03 23:31:52;;;;;;;1999.90;999.90;;;;;;;20.09;66.89;100851.47;15680120;28;20498;-58
2021/08/03 23:39:24;;;;;;;1999.90;999.90;;;;;;;20.22;67.88;100849.16;15656688;28;20306;-58
2021/08/03 23:46:58;;;;;;;1999.90;999.90;;;;;;;20.14;67.78;100855.97;15662850;28;20454;-59
2021/08/03 23:54:30;;;;;;;1999.90;999.90;;;;;;;20.08;68.99;100852.69;15685987;28;20052;-59
